KBDR/BDR METAR and TAF weather

Enter ICAO airport designator
Station Type Date Time Source
KBDR METAR 2019/10/21 05:52 UTC NOAA

KBDR 210552Z AUTO 03011KT 10SM OVC036 12/09 A2999 RMK AO2 RAE32 SLP156 P0000 60010 T01170094 10122 20111 56006


Station Type Date Time Source
KBDR Decoded METAR 2019/10/21 05:52 UTC NOAA

SIKORSKY MEMORIAL AIRPORT, CT, United States (KBDR) 41-10N 073-08W 7M
Oct 21, 2019 - 01:52 AM EDT / 2019.10.21 0552 UTC
Wind: from the NNE (030 degrees) at 13 MPH (11 KT):0
Visibility: 10 mile(s):0
Sky conditions: overcast
Precipitation last hour: A trace
Temperature: 53.1 F (11.7 C)
Dew Point: 48.9 F (9.4 C)
Relative Humidity: 85%
Pressure (altimeter): 29.99 in. Hg (1015 hPa)
Pressure tendency: 0.02 inches (0.6 hPa) lower than three hours ago
ob: KBDR 210552Z AUTO 03011KT 10SM OVC036 12/09 A2999 RMK AO2 RAE32 SLP156 P0000 60010 T01170094 10122 20111 56006
cycle: 6

Station Type Date Time Source
KBDR TAF 2019/10/21 06:42 UTC NOAA

TAF KBDR 210539Z 2106/2206 03011KT P6SM BKN030
FM210800 02012KT P6SM SCT030
FM212100 05007KT P6SM FEW030
FM220000 05006KT P6SM SCT250

Example: see airport list